Gulbeniz A — TCZK8 — position and weather

sailwx.info

Track history (hours):
 
Tides and Currents Weather Stations Pressure Air Temp Water Temp Dewpoint Dewpoint Depression Visibility Wind Speed Wind Dir Waves Ship Positions

Gulbeniz A

Last reported at 2015-Apr-21 04:34 UTC. Time now 2015-May-03 20:55 UTC.
Position N 08°46' W 015°30'.
Warning: this ship's position is 12 days out of date.

Length 210 m; draft 11.2 m.

Type: Ship (hazmat cat A). MMSI: 271042493.

Date/timePositionNaut miles runAvg speedWind from/ knotsBaromVisibWave heightAir tempDewpointWater temp
2015-Apr-21 04:34N 08°46' W 015°30'1616.0
2015-Apr-21 03:33N 08°56' W 015°43'1615.6
2015-Apr-21 02:33N 09°06' W 015°55'1615.5
2015-Apr-21 01:33N 09°16' W 016°07'1615.5
2015-Apr-21 00:33N 09°26' W 016°19'1515.1
2015-Apr-20 23:33N 09°35' W 016°31'1814.5
2015-Apr-20 22:20N 09°47' W 016°44'1213.9
2015-Apr-20 21:28N 09°57' W 016°52'1414.2
2015-Apr-20 20:29N 10°09' W 016°59'1314.4
2015-Apr-20 19:33N 10°20' W 017°06'2914.5
2015-Apr-20 17:33N 10°45' W 017°21'  
2015-Apr-14 15:33N 28°03' W 013°55'1714.6
2015-Apr-14 14:22N 28°18' W 013°45'1415.0
2015-Apr-14 13:26N 28°30' W 013°37'1515.0
2015-Apr-14 12:25N 28°43' W 013°29'60314.4
2015-Apr-12 18:33N 36°06' W 005°24'2 2.2
2015-Apr-12 17:33N 36°08' W 005°25'0 0.0
2015-Apr-12 16:33N 36°08' W 005°25'0 0.0
2015-Apr-12 15:33N 36°08' W 005°25'0 0.0
2015-Apr-12 14:33N 36°08' W 005°25'0 0.0
2015-Apr-12 13:33N 36°08' W 005°25'0 0.0
2015-Apr-12 12:33N 36°08' W 005°25'0 0.0
2015-Apr-12 11:33N 36°08' W 005°25'0 0.0
2015-Apr-12 10:33N 36°08' W 005°25'0 0.0
2015-Apr-12 09:33N 36°08' W 005°25'0 0.0
2015-Apr-12 08:33N 36°08' W 005°25'0 0.0
2015-Apr-12 07:33N 36°08' W 005°25'2 1.9
2015-Apr-12 06:33N 36°07' W 005°23'1010.1
2015-Apr-12 05:33N 36°04' W 005°11'8 7.9
2015-Apr-12 04:33N 35°60' W 005°20'10 0.6
2015-Apr-11 11:15N 35°57' W 005°31'710.5
2015-Apr-11 10:33N 36°00' W 005°23'1514.5
2015-Apr-11 09:32N 36°07' W 005°07'  
Track history (hours):
 
Tides and Currents Weather Stations Pressure Air Temp Water Temp Dewpoint Dewpoint Depression Visibility Wind Speed Wind Dir Waves Ship Positions

Gulbeniz A

Last reported at 2015-Apr-21 04:34 UTC. Time now 2015-May-03 20:55 UTC.
Position N 08°46' W 015°30'.
Warning: this ship's position is 12 days out of date.

Length 210 m; draft 11.2 m.

Type: Ship (hazmat cat A). MMSI: 271042493.

Date/timePositionNaut miles runAvg speedWind from/ knotsBaromVisibWave heightAir tempDewpointWater temp
2015-Apr-21 04:34N 08°46' W 015°30'1616.0
2015-Apr-21 03:33N 08°56' W 015°43'1615.6
2015-Apr-21 02:33N 09°06' W 015°55'1615.5
2015-Apr-21 01:33N 09°16' W 016°07'1615.5
2015-Apr-21 00:33N 09°26' W 016°19'1515.1
2015-Apr-20 23:33N 09°35' W 016°31'1814.5
2015-Apr-20 22:20N 09°47' W 016°44'1213.9
2015-Apr-20 21:28N 09°57' W 016°52'1414.2
2015-Apr-20 20:29N 10°09' W 016°59'1314.4
2015-Apr-20 19:33N 10°20' W 017°06'2914.5
2015-Apr-20 17:33N 10°45' W 017°21'  
2015-Apr-14 15:33N 28°03' W 013°55'1714.6
2015-Apr-14 14:22N 28°18' W 013°45'1415.0
2015-Apr-14 13:26N 28°30' W 013°37'1515.0
2015-Apr-14 12:25N 28°43' W 013°29'60314.4
2015-Apr-12 18:33N 36°06' W 005°24'2 2.2
2015-Apr-12 17:33N 36°08' W 005°25'0 0.0
2015-Apr-12 16:33N 36°08' W 005°25'0 0.0
2015-Apr-12 15:33N 36°08' W 005°25'0 0.0
2015-Apr-12 14:33N 36°08' W 005°25'0 0.0
2015-Apr-12 13:33N 36°08' W 005°25'0 0.0
2015-Apr-12 12:33N 36°08' W 005°25'0 0.0
2015-Apr-12 11:33N 36°08' W 005°25'0 0.0
2015-Apr-12 10:33N 36°08' W 005°25'0 0.0
2015-Apr-12 09:33N 36°08' W 005°25'0 0.0
2015-Apr-12 08:33N 36°08' W 005°25'0 0.0
2015-Apr-12 07:33N 36°08' W 005°25'2 1.9
2015-Apr-12 06:33N 36°07' W 005°23'1010.1
2015-Apr-12 05:33N 36°04' W 005°11'8 7.9
2015-Apr-12 04:33N 35°60' W 005°20'10 0.6
2015-Apr-11 11:15N 35°57' W 005°31'710.5
2015-Apr-11 10:33N 36°00' W 005°23'1514.5
2015-Apr-11 09:32N 36°07' W 005°07'  

Dump ship's entire track history